Time;durP1;ratioP1;P1;durP2;ratioP2;P2;SDS_P1;SDS_P2;PMS_P1;PMS_P2;Temp;Humidity;BMP_temperature;BMP_pressure;BME280_temperature;BME280_humidity;BME280_pressure;Samples;Min_cycle;Max_cycle;Signal;HPM_P1;HPM_P2
2021/07/26 00:01:02;;;;;;;10.38;5.63;;;;;;;21.19;58.04;100512.06;5042448;28;20041;-45
2021/07/26 00:03:29;;;;;;;7.22;5.50;;;;;;;21.14;58.21;100507.72;5042447;28;20132;-45
2021/07/26 00:05:57;;;;;;;12.07;7.32;;;;;;;21.09;58.04;100519.44;5042087;28;20049;-44
2021/07/26 00:08:33;;;;;;;9.48;5.93;;;;;;;21.09;58.11;100507.38;5041806;28;20041;-49
2021/07/26 00:11:05;;;;;;;7.75;5.63;;;;;;;21.05;58.37;100513.03;5041639;28;20040;-43
2021/07/26 00:13:31;;;;;;;7.73;6.30;;;;;;;21.01;58.19;100509.47;5042273;28;20454;-44
2021/07/26 00:15:59;;;;;;;8.75;6.90;;;;;;;20.94;58.14;100511.56;5041439;28;20041;-42
2021/07/26 00:18:27;;;;;;;14.13;7.40;;;;;;;20.85;58.41;100514.09;5042288;28;20044;-43
2021/07/26 00:20:55;;;;;;;9.48;6.45;;;;;;;20.77;58.34;100510.56;5042758;28;20120;-45
2021/07/26 00:23:22;;;;;;;8.55;6.53;;;;;;;20.73;58.55;100518.25;5042698;28;20041;-43
2021/07/26 00:25:49;;;;;;;8.98;6.38;;;;;;;20.64;58.86;100509.53;5042892;28;20048;-48
2021/07/26 00:28:16;;;;;;;7.35;6.07;;;;;;;20.53;59.00;100506.03;5042116;28;20095;-43
2021/07/26 00:30:44;;;;;;;11.75;6.43;;;;;;;20.50;58.98;100512.47;5072263;28;20052;-44
2021/07/26 00:34:04;;;;;;;13.43;8.02;;;;;;;20.41;59.33;100509.38;5081702;28;20040;-43
2021/07/26 00:36:31;;;;;;;9.18;7.28;;;;;;;20.38;59.05;100501.78;5064009;28;20051;-43
2021/07/26 00:38:58;;;;;;;9.70;6.68;;;;;;;20.33;59.36;100505.81;5082215;28;20076;-43
2021/07/26 00:41:25;;;;;;;8.60;5.93;;;;;;;20.28;59.45;100508.31;5082464;28;20043;-43
2021/07/26 00:43:52;;;;;;;8.05;6.07;;;;;;;20.23;59.49;100503.88;5082031;28;20438;-44
2021/07/26 00:46:19;;;;;;;6.13;5.50;;;;;;;20.23;59.67;100503.06;5082048;28;20105;-45
2021/07/26 00:48:46;;;;;;;10.20;6.63;;;;;;;20.20;59.77;100506.75;5081694;28;20051;-44
2021/07/26 00:51:13;;;;;;;12.13;6.15;;;;;;;20.16;59.65;100497.53;5081420;28;20141;-51
2021/07/26 00:53:40;;;;;;;8.43;6.97;;;;;;;20.13;59.78;100498.38;5081950;28;20170;-50
2021/07/26 00:56:07;;;;;;;8.90;5.18;;;;;;;20.10;59.81;100497.19;5082193;28;20411;-43
2021/07/26 00:58:35;;;;;;;6.65;4.95;;;;;;;20.08;59.89;100504.44;5081336;28;20169;-45
2021/07/26 01:01:02;;;;;;;8.75;5.80;;;;;;;20.07;59.92;100505.66;5081639;28;20460;-45
2021/07/26 01:03:29;;;;;;;5.53;4.97;;;;;;;20.05;59.81;100498.44;5081661;28;20044;-46
2021/07/26 01:05:56;;;;;;;8.88;5.63;;;;;;;20.01;60.12;100494.84;5081598;28;20062;-43
2021/07/26 01:08:23;;;;;;;9.23;5.53;;;;;;;19.99;60.33;100494.47;5079164;28;20393;-47
2021/07/26 01:10:50;;;;;;;6.70;5.32;;;;;;;19.93;60.41;100493.34;5082146;28;20556;-44
2021/07/26 01:13:19;;;;;;;6.13;5.00;;;;;;;19.95;60.14;100501.34;5082250;28;20539;-43
2021/07/26 01:15:46;;;;;;;8.35;4.85;;;;;;;19.90;60.56;100505.41;5080552;28;20058;-43
2021/07/26 01:18:22;;;;;;;6.32;4.88;;;;;;;19.89;60.71;100503.00;5082103;28;20046;-46
2021/07/26 01:21:00;;;;;;;7.32;4.75;;;;;;;19.87;60.60;100506.22;5081860;28;20087;-45
2021/07/26 01:23:29;;;;;;;6.13;5.13;;;;;;;19.85;60.58;100503.03;5080794;28;20047;-43
2021/07/26 01:26:00;;;;;;;7.70;5.25;;;;;;;19.84;60.51;100501.44;5082170;28;20450;-44
2021/07/26 01:28:33;;;;;;;5.80;4.55;;;;;;;19.85;60.42;100507.84;5081260;28;20043;-44
2021/07/26 01:31:01;;;;;;;7.45;4.82;;;;;;;19.86;60.29;100510.25;5081433;28;20051;-44
2021/07/26 01:33:29;;;;;;;8.85;4.72;;;;;;;19.85;60.34;100508.66;5081026;28;20153;-45
2021/07/26 01:35:59;;;;;;;9.20;5.68;;;;;;;19.84;60.20;100507.06;5081840;28;20089;-43
2021/07/26 01:38:26;;;;;;;8.30;5.38;;;;;;;19.83;60.26;100505.44;5082165;28;20051;-45
2021/07/26 01:40:54;;;;;;;5.15;4.65;;;;;;;19.83;60.19;100505.44;5080410;28;20048;-48
2021/07/26 01:43:24;;;;;;;6.35;4.93;;;;;;;19.87;60.07;100500.59;5080182;28;20040;-47
2021/07/26 01:46:00;;;;;;;8.80;5.38;;;;;;;19.85;60.12;100502.25;5080474;28;20052;-46
2021/07/26 01:48:45;;;;;;;6.85;4.82;;;;;;;19.85;60.01;100508.66;5080650;28;20048;-44
2021/07/26 01:51:18;;;;;;;6.07;5.47;;;;;;;19.83;59.90;100508.25;5081069;28;20059;-49
2021/07/26 01:53:46;;;;;;;8.35;5.30;;;;;;;19.84;59.96;100507.06;5080230;28;20121;-44
2021/07/26 01:56:13;;;;;;;6.10;5.20;;;;;;;19.80;60.22;100511.88;5080779;28;20489;-43
2021/07/26 01:58:40;;;;;;;6.65;4.55;;;;;;;19.79;60.01;100510.31;5080198;28;20508;-48
2021/07/26 02:01:07;;;;;;;7.18;5.40;;;;;;;19.76;60.08;100513.94;5080455;28;20032;-44
2021/07/26 02:03:34;;;;;;;11.13;5.63;;;;;;;19.71;60.33;100510.78;5081124;28;20132;-48
2021/07/26 02:06:01;;;;;;;6.78;4.85;;;;;;;19.65;60.53;100499.16;5080190;28;20127;-44
2021/07/26 02:08:27;;;;;;;5.85;4.60;;;;;;;19.61;60.53;100501.22;5080802;28;20044;-43
2021/07/26 02:10:54;;;;;;;6.97;5.18;;;;;;;19.58;60.71;100504.03;5080499;28;20499;-44
2021/07/26 02:13:21;;;;;;;7.85;5.18;;;;;;;19.55;60.67;100499.25;5079843;28;20649;-47
2021/07/26 02:15:47;;;;;;;5.78;5.07;;;;;;;19.51;60.66;100502.09;5080206;28;20071;-49
2021/07/26 02:18:15;;;;;;;8.40;5.70;;;;;;;19.50;60.84;100508.09;5079873;28;20048;-43
2021/07/26 02:20:42;;;;;;;6.50;4.70;;;;;;;19.53;60.63;100502.47;5079244;28;20040;-47
2021/07/26 02:23:08;;;;;;;8.20;5.30;;;;;;;19.49;60.97;100496.06;5079260;28;20043;-43
2021/07/26 02:25:35;;;;;;;8.75;5.40;;;;;;;19.42;61.25;100502.56;5078520;28;20048;-43
2021/07/26 02:28:02;;;;;;;7.13;4.57;;;;;;;19.35;61.49;100496.16;5080688;28;20055;-48
2021/07/26 02:30:29;;;;;;;5.43;4.78;;;;;;;19.26;61.67;100499.41;5079317;28;20054;-44
2021/07/26 02:32:56;;;;;;;7.20;5.72;;;;;;;19.20;61.93;100494.63;5081398;28;20592;-43
2021/07/26 02:35:23;;;;;;;10.32;6.47;;;;;;;19.18;62.13;100491.44;5078980;28;20484;-44
2021/07/26 02:37:51;;;;;;;8.65;5.82;;;;;;;19.12;62.21;100493.88;5080388;28;20056;-44
2021/07/26 02:40:18;;;;;;;9.40;6.10;;;;;;;19.07;62.50;100485.06;5080432;28;20122;-48
2021/07/26 02:42:45;;;;;;;7.18;5.15;;;;;;;19.01;62.50;100487.50;5079442;28;20047;-44
2021/07/26 02:45:12;;;;;;;7.82;5.57;;;;;;;18.99;62.28;100494.72;5079153;28;20051;-43
2021/07/26 02:47:39;;;;;;;8.73;5.82;;;;;;;18.99;62.11;100498.34;5079857;28;20054;-51
2021/07/26 02:50:06;;;;;;;7.88;5.63;;;;;;;18.99;62.03;100489.94;5079988;28;20109;-43
2021/07/26 02:52:34;;;;;;;6.60;5.43;;;;;;;18.93;62.04;100491.56;5080790;28;20048;-43
2021/07/26 02:55:00;;;;;;;10.65;5.13;;;;;;;18.88;61.82;100494.78;5078628;28;20044;-43
2021/07/26 02:57:27;;;;;;;7.35;5.50;;;;;;;18.84;61.83;100486.41;5080714;28;20079;-46
2021/07/26 02:59:54;;;;;;;5.90;5.03;;;;;;;18.78;61.75;100490.03;5078158;28;20052;-47
2021/07/26 03:02:22;;;;;;;9.27;6.15;;;;;;;18.76;61.75;100487.63;5080234;28;20050;-45
2021/07/26 03:04:49;;;;;;;8.10;6.28;;;;;;;18.75;61.57;100486.03;5079667;28;20040;-43
2021/07/26 03:07:16;;;;;;;10.82;6.15;;;;;;;18.69;61.58;100489.66;5079315;28;20044;-44
2021/07/26 03:09:43;;;;;;;8.35;5.65;;;;;;;18.68;61.40;100488.88;5079783;28;20397;-48
2021/07/26 03:12:10;;;;;;;11.63;5.85;;;;;;;18.74;61.08;100487.22;5080638;28;20036;-45
2021/07/26 03:14:36;;;;;;;8.55;5.70;;;;;;;18.68;61.27;100491.66;5079025;28;20048;-44
2021/07/26 03:17:04;;;;;;;11.02;5.55;;;;;;;18.64;61.10;100490.06;5079410;28;20090;-44
2021/07/26 03:19:33;;;;;;;8.98;5.60;;;;;;;18.62;61.02;100498.91;5079407;28;20044;-45
2021/07/26 03:22:19;;;;;;;8.98;5.45;;;;;;;18.64;60.84;100496.47;5079746;28;20064;-43
2021/07/26 03:24:47;;;;;;;10.10;6.43;;;;;;;18.61;60.76;100490.91;5052416;28;20091;-43
2021/07/26 03:27:13;;;;;;;12.70;7.15;;;;;;;18.62;60.60;100498.09;5079425;28;20137;-45
2021/07/26 03:29:40;;;;;;;6.88;5.72;;;;;;;18.58;60.81;100498.13;5079174;28;20048;-50
2021/07/26 03:32:07;;;;;;;6.50;5.38;;;;;;;18.58;60.78;100488.91;5084559;28;20052;-45
2021/07/26 03:34:34;;;;;;;7.85;5.85;;;;;;;18.51;60.88;100498.13;5082337;28;20047;-43
2021/07/26 03:37:01;;;;;;;8.27;5.75;;;;;;;18.51;60.93;100492.50;5083178;28;20083;-43
2021/07/26 03:39:27;;;;;;;10.85;6.07;;;;;;;18.48;60.94;100492.53;5083188;28;20048;-44
2021/07/26 03:41:58;;;;;;;12.90;6.25;;;;;;;18.40;61.13;100505.72;5082830;28;20052;-44
2021/07/26 03:44:24;;;;;;;11.50;5.25;;;;;;;18.46;60.90;100501.31;5082784;28;20051;-49
2021/07/26 03:46:51;;;;;;;9.18;5.18;;;;;;;18.47;60.61;100505.75;5083047;28;20052;-47
2021/07/26 03:49:18;;;;;;;9.05;5.30;;;;;;;18.43;60.49;100496.50;5082733;28;20047;-45
2021/07/26 03:51:44;;;;;;;7.45;5.32;;;;;;;18.39;60.54;100500.53;5083448;28;20052;-44
2021/07/26 03:54:11;;;;;;;13.77;5.65;;;;;;;18.36;60.51;100496.53;5082820;28;20048;-43
2021/07/26 03:56:38;;;;;;;8.68;5.88;;;;;;;18.36;60.42;100502.13;5082691;28;20772;-44
2021/07/26 03:59:04;;;;;;;14.13;7.85;;;;;;;18.24;60.65;100494.94;5083338;28;20044;-44
2021/07/26 04:01:31;;;;;;;7.50;4.70;;;;;;;18.18;60.87;100502.19;5064515;28;20159;-45
2021/07/26 04:03:58;;;;;;;6.78;5.38;;;;;;;18.16;60.88;100503.78;5083171;28;20036;-42
2021/07/26 04:06:25;;;;;;;10.80;6.78;;;;;;;18.14;61.02;100506.97;5082352;28;20035;-44
2021/07/26 04:08:53;;;;;;;8.63;6.07;;;;;;;18.11;61.03;100501.38;5064212;28;20056;-42
2021/07/26 04:11:24;;;;;;;8.27;5.28;;;;;;;18.08;61.19;100500.16;5082979;28;20124;-43
2021/07/26 04:13:55;;;;;;;11.27;5.90;;;;;;;18.10;61.16;100506.19;5082774;28;20123;-43
2021/07/26 04:16:22;;;;;;;16.73;6.28;;;;;;;18.07;61.05;100506.19;5081650;28;20481;-43
2021/07/26 04:18:50;;;;;;;7.93;5.65;;;;;;;18.04;61.23;100504.19;5082058;28;20550;-43
2021/07/26 04:21:17;;;;;;;9.93;5.72;;;;;;;18.02;61.34;100509.41;5083491;28;20036;-43
2021/07/26 04:23:44;;;;;;;11.80;7.10;;;;;;;18.04;61.42;100512.59;5083154;28;20078;-43
2021/07/26 04:26:11;;;;;;;9.57;6.05;;;;;;;18.04;61.27;100510.59;5082711;28;20377;-43
2021/07/26 04:28:38;;;;;;;10.57;5.85;;;;;;;17.97;61.56;100507.00;5081149;28;20058;-43
2021/07/26 04:31:05;;;;;;;8.93;5.88;;;;;;;17.98;61.71;100508.59;5081880;28;20056;-43
2021/07/26 04:33:31;;;;;;;7.50;5.97;;;;;;;17.99;61.63;100505.41;5082625;28;20459;-43
2021/07/26 04:36:01;;;;;;;12.75;6.93;;;;;;;17.94;61.73;100516.19;5082516;28;20047;-46
2021/07/26 04:38:28;;;;;;;9.75;6.28;;;;;;;17.95;61.75;100523.41;5083222;28;20040;-44
2021/07/26 04:40:54;;;;;;;7.75;5.20;;;;;;;17.94;61.98;100519.00;5082373;28;20048;-46
2021/07/26 04:43:21;;;;;;;9.70;6.63;;;;;;;17.88;62.08;100512.19;5081809;28;20052;-43
2021/07/26 04:45:48;;;;;;;13.55;6.93;;;;;;;17.80;62.39;100511.41;5081938;28;20479;-45
2021/07/26 04:48:18;;;;;;;11.90;6.93;;;;;;;17.79;62.87;100512.59;5076189;28;20508;-48
2021/07/26 04:50:45;;;;;;;12.20;6.32;;;;;;;17.83;62.51;100509.78;5082987;28;20054;-48
2021/07/26 04:53:12;;;;;;;11.40;6.40;;;;;;;17.86;62.66;100509.00;5064119;28;20048;-43
2021/07/26 04:55:38;;;;;;;10.43;7.75;;;;;;;17.86;62.63;100506.19;5082590;28;20638;-47
2021/07/26 04:58:05;;;;;;;15.30;6.82;;;;;;;17.84;62.79;100508.59;5083132;28;20044;-44
2021/07/26 05:00:32;;;;;;;11.43;6.88;;;;;;;17.84;63.17;100503.00;5081622;28;20480;-43
2021/07/26 05:02:59;;;;;;;13.63;7.72;;;;;;;17.89;62.61;100495.00;5082650;28;20040;-46
2021/07/26 05:05:26;;;;;;;9.27;7.15;;;;;;;17.90;62.94;100499.38;5082140;28;20047;-45
2021/07/26 05:07:53;;;;;;;13.10;8.35;;;;;;;17.99;62.79;100490.59;5082013;28;20452;-48
2021/07/26 05:10:19;;;;;;;11.98;8.10;;;;;;;18.05;62.56;100509.41;5082979;28;20381;-46
2021/07/26 05:12:47;;;;;;;13.18;8.20;;;;;;;17.98;62.85;100509.38;5081466;28;20811;-44
2021/07/26 05:15:13;;;;;;;13.82;7.65;;;;;;;17.85;63.32;100504.59;5081641;28;20050;-44
2021/07/26 05:17:40;;;;;;;10.15;7.40;;;;;;;17.83;63.42;100507.00;5082119;28;20056;-49
2021/07/26 05:20:07;;;;;;;15.20;8.43;;;;;;;17.85;63.67;100502.59;5081831;28;20051;-43
2021/07/26 05:22:37;;;;;;;17.92;8.20;;;;;;;17.88;63.84;100510.19;5081657;28;20040;-43
2021/07/26 05:25:04;;;;;;;15.38;8.30;;;;;;;17.87;63.81;100513.41;5081780;28;20044;-47
2021/07/26 05:27:31;;;;;;;15.52;8.07;;;;;;;17.91;63.84;100514.19;5081713;28;20062;-50
2021/07/26 05:29:58;;;;;;;13.07;8.48;;;;;;;17.92;63.82;100505.41;5081150;28;20052;-46
2021/07/26 05:32:25;;;;;;;14.93;9.68;;;;;;;17.86;64.09;100509.81;5081524;28;20044;-45
2021/07/26 05:34:52;;;;;;;13.48;9.63;;;;;;;17.91;64.30;100505.78;5081291;28;20048;-44
2021/07/26 05:37:19;;;;;;;12.73;7.43;;;;;;;18.03;63.87;100505.41;5081543;28;20075;-43
2021/07/26 05:39:47;;;;;;;14.25;8.45;;;;;;;18.02;64.00;100515.00;5082144;28;20131;-44
2021/07/26 05:42:14;;;;;;;21.05;9.10;;;;;;;17.97;64.08;100518.22;5082428;28;20060;-47
2021/07/26 05:44:41;;;;;;;30.88;9.93;;;;;;;17.98;64.26;100514.19;5080544;28;20055;-48
2021/07/26 05:47:09;;;;;;;11.90;8.38;;;;;;;18.05;63.73;100511.41;5081137;28;20453;-45
2021/07/26 05:49:36;;;;;;;14.75;8.13;;;;;;;18.03;64.17;100508.22;5081751;28;20047;-49
2021/07/26 05:52:04;;;;;;;15.43;8.38;;;;;;;18.03;64.19;100511.78;5080892;28;20040;-43
2021/07/26 05:54:30;;;;;;;14.70;8.15;;;;;;;18.08;64.22;100513.41;5081272;28;20051;-43
2021/07/26 05:56:57;;;;;;;14.18;8.75;;;;;;;18.01;64.45;100508.59;5080483;28;20059;-47
2021/07/26 05:59:27;;;;;;;12.43;7.57;;;;;;;18.08;64.27;100513.41;5080899;28;20076;-52
2021/07/26 06:01:58;;;;;;;17.70;8.00;;;;;;;18.13;64.33;100498.97;5080335;28;20463;-48
2021/07/26 06:04:26;;;;;;;16.02;7.35;;;;;;;18.17;64.25;100502.56;5079684;28;20059;-44
2021/07/26 06:06:55;;;;;;;16.05;8.73;;;;;;;18.19;64.30;100514.16;5079651;28;20464;-44
2021/07/26 06:09:22;;;;;;;16.20;8.43;;;;;;;18.09;64.38;100514.97;5079363;28;20125;-49
2021/07/26 06:11:51;;;;;;;14.07;8.75;;;;;;;18.02;64.42;100515.81;5081335;28;20381;-43
2021/07/26 06:14:20;;;;;;;17.85;8.82;;;;;;;18.01;64.36;100513.38;5081244;28;20984;-43
2021/07/26 06:16:51;;;;;;;14.82;8.15;;;;;;;17.99;64.47;100516.59;5081855;28;20060;-44
2021/07/26 06:19:19;;;;;;;11.77;8.60;;;;;;;18.01;64.30;100516.19;5080400;28;20044;-43
2021/07/26 06:21:47;;;;;;;12.15;7.80;;;;;;;17.93;64.62;100511.78;5081256;28;20040;-43
2021/07/26 06:24:15;;;;;;;10.73;7.72;;;;;;;17.93;64.70;100511.78;5080210;28;20052;-49
2021/07/26 06:26:43;;;;;;;19.85;9.38;;;;;;;17.89;64.67;100502.59;5081038;28;20040;-43
2021/07/26 06:29:10;;;;;;;10.35;7.63;;;;;;;17.98;64.78;100512.19;5079301;28;20048;-45
2021/07/26 06:31:37;;;;;;;10.70;7.78;;;;;;;18.06;64.65;100507.38;5081045;28;20146;-44
2021/07/26 06:34:05;;;;;;;16.95;8.80;;;;;;;18.09;64.61;100509.38;5080847;28;20044;-43
2021/07/26 06:36:32;;;;;;;9.88;7.60;;;;;;;18.13;64.65;100507.38;5081208;28;20040;-46
2021/07/26 06:39:03;;;;;;;15.85;8.25;;;;;;;18.15;64.73;100519.00;5080017;28;20047;-45
2021/07/26 06:41:30;;;;;;;15.73;7.70;;;;;;;18.09;64.94;100514.97;5080654;28;20043;-44
2021/07/26 06:43:57;;;;;;;18.08;8.07;;;;;;;18.08;65.08;100513.41;5080687;28;20054;-45
2021/07/26 06:46:24;;;;;;;16.52;8.35;;;;;;;18.14;65.19;100517.38;5080303;28;20044;-49
2021/07/26 06:48:51;;;;;;;15.68;7.63;;;;;;;18.22;65.02;100507.75;5080456;28;20044;-43
2021/07/26 06:51:18;;;;;;;16.88;8.50;;;;;;;18.22;65.04;100513.38;5080388;28;20048;-43
2021/07/26 06:53:47;;;;;;;12.25;7.60;;;;;;;18.27;65.02;100514.97;5080901;28;20183;-47
2021/07/26 06:56:14;;;;;;;12.38;7.63;;;;;;;18.29;65.00;100518.19;5062066;28;20048;-45
2021/07/26 06:58:41;;;;;;;13.68;7.93;;;;;;;18.41;64.91;100510.13;5080476;28;20046;-43
2021/07/26 07:01:11;;;;;;;13.15;7.00;;;;;;;18.52;64.83;100508.16;5080251;28;20109;-48
2021/07/26 07:03:43;;;;;;;13.10;7.35;;;;;;;18.53;64.86;100506.91;5080805;28;20062;-42
2021/07/26 07:06:12;;;;;;;16.17;7.32;;;;;;;18.61;64.72;100511.31;5083303;28;20420;-43
2021/07/26 07:08:40;;;;;;;15.93;8.23;;;;;;;18.72;64.37;100511.28;5084254;28;20044;-44
2021/07/26 07:11:11;;;;;;;21.35;7.80;;;;;;;18.86;64.37;100514.03;5084275;28;20048;-43
2021/07/26 07:13:43;;;;;;;18.08;8.73;;;;;;;18.94;64.49;100514.78;5084052;28;20043;-44
2021/07/26 07:16:16;;;;;;;21.75;7.80;;;;;;;19.05;64.27;100515.56;5085025;28;20043;-46
2021/07/26 07:18:44;;;;;;;15.40;7.45;;;;;;;19.26;64.20;100519.06;5084729;28;20052;-45
2021/07/26 07:21:21;;;;;;;13.45;8.02;;;;;;;19.45;63.70;100512.16;5084122;28;20040;-46
2021/07/26 07:23:49;;;;;;;11.65;6.38;;;;;;;19.63;63.77;100518.44;5083386;28;20080;-48
2021/07/26 07:26:17;;;;;;;12.60;6.57;;;;;;;19.79;63.35;100520.75;5084342;28;20462;-44
2021/07/26 07:28:45;;;;;;;18.23;6.93;;;;;;;19.89;63.27;100515.03;5077554;28;20044;-44
2021/07/26 07:31:37;;;;;;;10.87;7.33;;;;;;;19.94;63.30;100520.22;5080793;28;20048;-41
2021/07/26 07:34:04;;;;;;;15.05;7.32;;;;;;;19.95;63.36;100519.00;5081886;28;20408;-47
2021/07/26 07:36:31;;;;;;;13.90;7.32;;;;;;;19.89;63.17;100525.47;5063498;28;20046;-44
2021/07/26 07:38:59;;;;;;;9.85;7.05;;;;;;;19.96;63.24;100529.00;5081534;28;20047;-42
2021/07/26 07:41:26;;;;;;;10.13;6.22;;;;;;;20.09;63.23;100525.72;5081083;28;20051;-42
2021/07/26 07:43:53;;;;;;;10.10;6.88;;;;;;;20.16;63.18;100525.66;5081472;28;20079;-45
2021/07/26 07:46:21;;;;;;;9.55;6.78;;;;;;;20.26;62.35;100528.38;5080346;28;20048;-42
2021/07/26 07:48:49;;;;;;;9.77;6.35;;;;;;;20.25;61.92;100521.19;5081646;28;20059;-42
2021/07/26 07:51:20;;;;;;;12.43;5.63;;;;;;;20.34;61.73;100529.91;5080613;28;20138;-43
2021/07/26 07:53:51;;;;;;;10.18;6.22;;;;;;;20.40;61.34;100533.06;5080846;28;20048;-43
2021/07/26 07:56:17;;;;;;;16.88;7.20;;;;;;;20.45;61.36;100535.44;5081998;28;20047;-43
2021/07/26 07:58:45;;;;;;;12.82;8.18;;;;;;;20.41;61.19;100541.09;5082060;28;20231;-44
2021/07/26 08:01:12;;;;;;;11.85;7.53;;;;;;;20.34;61.08;100538.34;5081474;28;20483;-42
2021/07/26 08:03:39;;;;;;;13.38;7.03;;;;;;;20.16;61.20;100543.31;5081411;28;20039;-42
2021/07/26 08:06:06;;;;;;;12.57;7.03;;;;;;;20.15;61.08;100538.13;5081514;28;20485;-42
2021/07/26 08:08:33;;;;;;;10.50;6.55;;;;;;;20.24;61.11;100542.06;5080609;28;20497;-43
2021/07/26 08:11:00;;;;;;;12.38;6.95;;;;;;;20.40;60.46;100545.13;5080696;28;20182;-43
2021/07/26 08:13:28;;;;;;;13.15;7.25;;;;;;;20.18;60.49;100545.69;5078604;28;20093;-47
2021/07/26 08:15:56;;;;;;;10.30;6.35;;;;;;;19.83;60.63;100549.63;5080620;28;20058;-47
2021/07/26 08:18:25;;;;;;;7.00;5.80;;;;;;;19.50;61.00;100542.59;5081364;28;20050;-43
2021/07/26 08:20:53;;;;;;;9.95;5.70;;;;;;;19.35;61.25;100546.69;5079686;28;20043;-43
2021/07/26 08:23:19;;;;;;;7.57;5.43;;;;;;;19.21;61.58;100547.56;5081152;28;20048;-44
2021/07/26 08:25:46;;;;;;;9.90;6.00;;;;;;;19.03;62.37;100546.03;5080537;28;20777;-47
2021/07/26 08:28:13;;;;;;;9.02;6.47;;;;;;;19.07;61.97;100544.00;5080656;28;20393;-47
2021/07/26 08:30:41;;;;;;;8.88;6.68;;;;;;;18.98;62.41;100540.84;5080273;28;20056;-44
2021/07/26 08:33:10;;;;;;;12.63;6.47;;;;;;;18.80;63.08;100550.13;5079963;28;20043;-47
2021/07/26 08:35:37;;;;;;;11.55;7.20;;;;;;;18.84;63.13;100542.50;5078631;28;20701;-51
2021/07/26 08:38:05;;;;;;;9.23;6.55;;;;;;;18.97;63.13;100536.44;5081904;28;20050;-44
2021/07/26 08:40:33;;;;;;;11.27;7.85;;;;;;;19.03;62.89;100543.22;5079494;28;20134;-47
2021/07/26 08:43:04;;;;;;;7.70;6.82;;;;;;;19.07;63.06;100538.38;5079560;28;20047;-44
2021/07/26 08:45:32;;;;;;;10.65;7.90;;;;;;;19.14;63.03;100532.75;5080705;28;21101;-46
2021/07/26 08:48:08;;;;;;;12.55;7.47;;;;;;;19.11;64.16;100530.78;5079989;28;20052;-50
2021/07/26 08:50:37;;;;;;;10.10;7.18;;;;;;;19.10;63.93;100529.97;5079644;28;20552;-47
2021/07/26 08:53:06;;;;;;;14.25;8.10;;;;;;;19.22;63.95;100525.91;5079684;28;20389;-49
2021/07/26 08:55:34;;;;;;;11.45;8.02;;;;;;;19.18;64.05;100527.91;5080132;28;20151;-45
2021/07/26 08:58:03;;;;;;;12.38;7.80;;;;;;;19.18;64.05;100525.09;5080399;28;20075;-45
2021/07/26 09:00:32;;;;;;;13.13;8.23;;;;;;;19.19;64.29;100526.72;5079360;28;20055;-43
2021/07/26 09:03:01;;;;;;;14.02;9.52;;;;;;;19.16;64.63;100528.34;5078756;28;20048;-42
2021/07/26 09:05:28;;;;;;;17.02;8.77;;;;;;;19.23;64.70;100527.50;5079050;28;21869;-46
2021/07/26 09:07:59;;;;;;;13.00;8.68;;;;;;;19.32;64.77;100528.66;5080537;28;20134;-51
2021/07/26 09:10:26;;;;;;;12.07;7.85;;;;;;;19.49;64.12;100532.56;5078199;28;20044;-47
2021/07/26 09:12:54;;;;;;;13.57;8.95;;;;;;;19.52;64.21;100528.94;5080229;28;20408;-47
2021/07/26 09:15:36;;;;;;;14.75;8.07;;;;;;;19.51;64.53;100530.19;5081055;28;20643;-50
2021/07/26 09:18:06;;;;;;;10.98;8.18;;;;;;;19.46;64.57;100524.97;5080033;28;20036;-43
2021/07/26 09:20:39;;;;;;;11.98;8.02;;;;;;;19.58;64.63;100524.50;5079754;28;20580;-46
2021/07/26 09:23:10;;;;;;;10.93;7.68;;;;;;;19.66;64.87;100526.06;5080155;28;20753;-46
2021/07/26 09:25:39;;;;;;;12.38;7.55;;;;;;;19.69;64.41;100521.63;5079939;28;20497;-44
2021/07/26 09:28:12;;;;;;;8.68;6.93;;;;;;;19.70;64.35;100529.63;5078703;28;20469;-43
2021/07/26 09:30:40;;;;;;;11.15;7.38;;;;;;;19.72;64.38;100516.00;5079999;28;20080;-43
2021/07/26 09:33:23;;;;;;;11.25;6.82;;;;;;;19.69;64.82;100525.25;5079059;28;20504;-44
2021/07/26 09:36:18;;;;;;;13.70;7.25;;;;;;;19.67;64.94;100521.25;5078830;28;20051;-49
2021/07/26 09:38:49;;;;;;;11.65;7.28;;;;;;;19.68;64.45;100528.44;5078899;28;20040;-46
2021/07/26 09:41:43;;;;;;;11.82;6.80;;;;;;;19.71;64.79;100519.19;5079089;28;20036;-44
2021/07/26 09:44:10;;;;;;;14.20;7.50;;;;;;;19.80;64.45;100511.88;5080304;28;20071;-49
2021/07/26 09:46:39;;;;;;;11.70;5.47;;;;;;;19.96;64.46;100514.97;5079145;28;21138;-46
2021/07/26 09:49:18;;;;;;;8.77;5.65;;;;;;;20.14;64.16;100517.63;5079945;28;20224;-45
2021/07/26 09:52:09;;;;;;;12.10;6.53;;;;;;;20.29;63.74;100510.69;5078472;28;20150;-49
2021/07/26 09:54:40;;;;;;;5.35;4.85;;;;;;;20.25;63.80;100509.94;5078292;28;20131;-45
2021/07/26 09:57:16;;;;;;;8.43;5.18;;;;;;;20.30;63.89;100517.91;5078435;28;20198;-51
2021/07/26 09:59:48;;;;;;;10.93;5.85;;;;;;;20.25;63.78;100515.56;5079092;28;20834;-46
2021/07/26 10:02:23;;;;;;;9.07;5.45;;;;;;;20.14;64.27;100511.22;5080486;28;20127;-44
2021/07/26 10:04:52;;;;;;;7.05;4.55;;;;;;;20.10;63.91;100502.00;5079502;28;20048;-43
2021/07/26 10:07:19;;;;;;;9.43;4.82;;;;;;;20.09;63.87;100508.84;5078885;28;20040;-46
2021/07/26 10:09:48;;;;;;;8.43;5.25;;;;;;;20.09;63.90;100506.03;5079823;28;20051;-47
2021/07/26 10:12:24;;;;;;;7.13;5.22;;;;;;;20.12;64.09;100516.47;5061272;28;20056;-51
2021/07/26 10:14:51;;;;;;;9.13;5.28;;;;;;;20.26;63.82;100522.75;5080858;28;20563;-45
2021/07/26 10:17:18;;;;;;;8.40;5.05;;;;;;;20.26;63.70;100519.94;5080016;28;20044;-48
2021/07/26 10:19:45;;;;;;;8.60;6.30;;;;;;;20.32;63.75;100514.69;5079152;28;20047;-44
2021/07/26 10:22:23;;;;;;;9.15;5.20;;;;;;;20.32;63.65;100525.94;5079145;28;20055;-46
2021/07/26 10:24:54;;;;;;;6.78;5.70;;;;;;;20.38;63.79;100527.06;5079811;28;20134;-47
2021/07/26 10:27:27;;;;;;;10.70;5.38;;;;;;;20.43;63.36;100516.19;5079288;28;20028;-42
2021/07/26 10:29:55;;;;;;;8.60;6.40;;;;;;;20.49;63.39;100520.09;5078035;28;20048;-46
2021/07/26 10:32:36;;;;;;;8.20;6.22;;;;;;;20.48;63.27;100523.34;5079564;28;20048;-43
2021/07/26 10:35:25;;;;;;;7.60;6.00;;;;;;;20.38;63.45;100529.88;5077880;28;20497;-46
2021/07/26 10:37:52;;;;;;;10.38;6.30;;;;;;;20.26;63.80;100533.19;5067881;28;20052;-49
2021/07/26 10:40:31;;;;;;;16.20;7.28;;;;;;;20.24;63.97;100535.63;5082806;28;20094;-45
2021/07/26 10:43:03;;;;;;;9.88;6.40;;;;;;;20.24;63.86;100521.59;5081285;28;20039;-45
2021/07/26 10:45:35;;;;;;;10.68;6.72;;;;;;;20.33;64.05;100524.72;5082333;28;20082;-46
2021/07/26 10:48:30;;;;;;;13.25;7.55;;;;;;;20.44;64.08;100522.56;5083939;28;20079;-46
2021/07/26 10:51:02;;;;;;;16.23;7.20;;;;;;;20.62;63.52;100511.97;5082234;28;20056;-43
2021/07/26 10:53:34;;;;;;;19.70;6.82;;;;;;;20.80;63.46;100512.53;5083205;28;21501;-50
2021/07/26 10:56:11;;;;;;;11.02;7.10;;;;;;;21.26;63.23;100506.31;5082521;28;20484;-51
2021/07/26 10:58:37;;;;;;;8.20;5.78;;;;;;;21.91;61.93;100507.00;5081530;28;20525;-45
2021/07/26 11:01:22;;;;;;;9.20;6.43;;;;;;;22.33;60.36;100501.41;5083298;28;20044;-49
2021/07/26 11:03:51;;;;;;;14.90;7.45;;;;;;;22.63;59.90;100496.84;5081571;28;20052;-46
2021/07/26 11:06:33;;;;;;;8.10;6.28;;;;;;;22.74;59.13;100488.97;5081667;28;20047;-51
2021/07/26 11:09:19;;;;;;;11.18;6.97;;;;;;;22.76;58.08;100497.78;5083557;28;20109;-47
2021/07/26 11:11:49;;;;;;;9.05;6.03;;;;;;;22.72;58.93;100503.50;5081742;28;20048;-46
2021/07/26 11:14:17;;;;;;;9.27;5.72;;;;;;;22.74;58.76;100500.25;5082369;28;20054;-44
2021/07/26 11:16:55;;;;;;;8.95;5.97;;;;;;;22.60;58.01;100492.03;5083927;28;20038;-45
2021/07/26 11:19:39;;;;;;;12.23;6.38;;;;;;;22.79;58.06;100496.91;5082188;28;20680;-46
2021/07/26 11:22:15;;;;;;;9.77;6.28;;;;;;;23.05;58.04;100487.50;5081120;28;20130;-48
2021/07/26 11:24:49;;;;;;;11.60;7.03;;;;;;;23.14;56.79;100501.81;5083188;28;20044;-44
2021/07/26 11:27:20;;;;;;;10.63;6.70;;;;;;;22.96;57.71;100487.28;5082010;28;20036;-47
2021/07/26 11:29:50;;;;;;;9.85;7.15;;;;;;;22.88;57.52;100474.53;5082505;28;20083;-43
2021/07/26 11:32:27;;;;;;;11.23;7.18;;;;;;;22.81;57.28;100477.53;5082699;28;20036;-46